Inverness Airport

EGPE · Scotland, United Kingdom

METAR history EGPE · Inverness Airport

Below you see METARs of the last few days. Select a year to browse through older METARs, from the year 2007 onwards.

February 27, 2024

Time Code Weather Temp. Visibility Ceiling Wind METAR/SPECI
16:20
V
6 °C 10 km+ - 260° 260° 13 kt METAR EGPE 271620Z 26013KT 9999 VCSH FEW014 SCT032 06/03 Q1006 RESHRA
15:50
V
8 °C 10 km+ 4,600 ft 250° 250° 21 - 32 kt METAR EGPE 271550Z 25021G32KT 9999 SHRA FEW014 SCT038 BKN046 08/02 Q1006
15:20
V
8 °C 10 km+ - 240° 240° 18 kt METAR EGPE 271520Z 24018KT 9999 VCSH FEW014 SCT038 08/03 Q1005
14:50
V
7 °C 10 km+ - 230° 230° 18 kt METAR EGPE 271450Z 23018KT 9999 VCSH FEW018 SCT038 07/03 Q1005
14:20
V
8 °C 10 km+ - 240° 240° 17 kt METAR EGPE 271420Z 24017KT 9999 VCSH FEW016 SCT030 08/03 Q1005
13:50
V
7 °C 10 km+ 4,600 ft 220° 220° 13 kt METAR EGPE 271350Z 22013KT 9999 VCSH FEW018 SCT032 BKN046 07/04 Q1005
13:20
V
7 °C 10 km+ - 240° 240° 15 kt METAR EGPE 271320Z 24015KT 9999 VCSH FEW020 07/03 Q1005
12:50
V
5 °C 10 km+ - 260° 260° 22 - 34 kt METAR EGPE 271250Z 26022G34KT 9999 8000S -RA FEW003 SCT021 05/03 Q1006
12:20
V
8 °C 10 km+ 4,000 ft 230° 230° 17 kt METAR EGPE 271220Z 23017KT 9999 VCSH FEW012 SCT032 BKN040 08/03 Q1005
11:50
V
8 °C 10 km+ - 230° 230° 19 kt METAR EGPE 271150Z 23019KT 9999 FEW015 SCT034 08/03 Q1005
11:20
V
7 °C 10 km+ - 240° 240° 18 kt METAR EGPE 271120Z 24018KT 9999 FEW015 SCT034 07/03 Q1005
10:50
V
8 °C 10 km+ - 240° 240° 17 kt METAR EGPE 271050Z 24017KT 9999 VCSH FEW015 SCT032 08/03 Q1004
10:20
V
7 °C 10 km+ - 230° 230° 12 kt METAR EGPE 271020Z 23012KT 9999 VCSH FEW035 07/03 Q1004
09:50
V
7 °C 10 km+ - 240° 240° 11 kt METAR EGPE 270950Z 24011KT 9999 VCSH FEW034 07/05 Q1004
09:20
V
7 °C 9 km 3,300 ft 240° 240° 4 kt METAR EGPE 270920Z 24004KT 9000 -RA FEW010 SCT019 BKN033 07/06 Q1004
08:50
V
7 °C 9 km 3,300 ft 240° 240° 11 kt METAR EGPE 270850Z 24011KT 9000 -RA FEW010 SCT019 BKN033 07/06 Q1004 RERA
08:20
M
7 °C 6 km 3,200 ft 230° 230° 18 kt METAR EGPE 270820Z 23018KT 6000 RA FEW005 SCT017 BKN032 07/05 Q1003 RESHRA
07:50
V
7 °C 10 km+ - 220° 220° 22 kt METAR EGPE 270750Z 22022KT 9999 SHRA FEW017 SCT043 07/05 Q1002
07:20
V
8 °C 10 km+ - 210° 210° 20 - 30 kt METAR EGPE 270720Z 21020G30KT 9999 FEW039 08/03 Q1002
06:50
V
7 °C 10 km+ - 210° 210° 21 - 31 kt METAR EGPE 270650Z 21021G31KT 9999 FEW039 07/03 Q1002
06:20
V
7 °C 10 km+ - 220° 220° 19 kt METAR EGPE 270620Z 22019KT 9999 FEW044 07/03 Q1003
05:50
V
7 °C 10 km+ - 220° 220° 22 kt METAR EGPE 270550Z 22022KT 9999 FEW046 07/03 Q1003
05:20
V
7 °C 10 km+ - 230° 230° 23 kt METAR EGPE 270520Z 23023KT 9999 -RA FEW046 07/03 Q1004
04:50
V
7 °C 10 km+ - 220° 220° 26 kt METAR EGPE 270450Z 22026KT 9999 FEW035 07/03 Q1004
04:20
V
7 °C 10 km+ - 220° 220° 23 - 36 kt METAR EGPE 270420Z 22023G36KT 9999 FEW046 07/03 Q1005
03:50
V
7 °C 10 km+ 4,300 ft 220° 220° 22 - 35 kt METAR EGPE 270350Z 22022G35KT 9999 FEW020 BKN043 07/02 Q1006
03:20
V
6 °C 10 km+ - 220° 220° 23 - 35 kt METAR EGPE 270320Z 22023G35KT 9999 FEW020 06/02 Q1007
02:50
V
7 °C 10 km+ - 220° 220° 24 - 39 kt METAR EGPE 270250Z 22024G39KT 9999 FEW020 07/02 Q1007
02:20
V
7 °C 10 km+ - 220° 220° 23 - 34 kt METAR EGPE 270220Z AUTO 22023G34KT 9999 NCD 07/01 Q1008
01:50
V
7 °C 10 km+ - 220° 220° 24 - 36 kt METAR EGPE 270150Z AUTO 22024G36KT 9999 NCD 07/01 Q1009
01:20
V
6 °C 10 km+ - 220° 220° 23 kt METAR EGPE 270120Z AUTO 22023KT 9999 NCD 06/02 Q1010
00:50
V
6 °C 10 km+ - 220° 220° 19 - 29 kt METAR EGPE 270050Z AUTO 22019G29KT 180V240 9999 NCD 06/01 Q1011
00:20
V
6 °C 10 km+ - 220° 220° 20 kt METAR EGPE 270020Z AUTO 22020KT 9999 NCD 06/01 Q1012

February 26, 2024

Time Code Weather Temp. Visibility Ceiling Wind METAR/SPECI
23:50
V
5 °C 10 km+ - 220° 220° 22 kt METAR EGPE 262350Z AUTO 22022KT 9999 NCD 05/01 Q1012
23:20
V
5 °C 10 km+ - 220° 220° 19 kt METAR EGPE 262320Z AUTO 22019KT 9999 NCD 05/00 Q1013
22:50
V
5 °C 10 km+ - 220° 220° 17 kt METAR EGPE 262250Z AUTO 22017KT 9999 NCD 05/M01 Q1013
22:20
V
5 °C 10 km+ - 220° 220° 20 kt METAR EGPE 262220Z AUTO 22020KT 9999 NCD 05/M01 Q1014
21:50
V
5 °C 10 km+ - 230° 230° 14 kt METAR EGPE 262150Z 23014KT 9999 FEW034 05/M01 Q1015
21:20
V
5 °C 10 km+ - 230° 230° 15 kt METAR EGPE 262120Z 23015KT 9999 FEW034 05/M01 Q1015
20:50
V
4 °C 10 km+ - 230° 230° 12 kt METAR EGPE 262050Z 23012KT 9999 FEW034 04/M01 Q1016
20:20
V
4 °C 10 km+ - 230° 230° 11 kt METAR EGPE 262020Z 23011KT 9999 FEW034 04/M01 Q1016
19:50
V
4 °C 10 km+ - 240° 240° 10 kt METAR EGPE 261950Z 24010KT 9999 FEW034 04/M01 Q1017
19:20
V
5 °C 10 km+ - 210° 210° 12 kt METAR EGPE 261920Z 21012KT 9999 FEW034 05/M01 Q1017
18:50
V
4 °C 10 km+ - 200° 200° 7 kt METAR EGPE 261850Z 20007KT 9999 FEW034 04/M02 Q1018
18:20
V
4 °C 10 km+ - 200° 200° 11 kt METAR EGPE 261820Z 20011KT 9999 FEW034 04/M02 Q1018
17:50
V
4 °C 10 km+ - 200° 200° 8 kt METAR EGPE 261750Z 20008KT 9999 FEW032 04/M01 Q1018
17:20
V
4 °C 10 km+ - 200° 200° 6 kt METAR EGPE 261720Z 20006KT 9999 FEW030 04/M02 Q1019
16:50
V
5 °C 10 km+ - 230° 230° 9 kt METAR EGPE 261650Z 23009KT 9999 FEW030 05/M01 Q1019
16:20
V
6 °C 10 km+ - 250° 250° 8 kt METAR EGPE 261620Z 25008KT 9999 FEW030 06/M01 Q1019
15:50
V
6 °C 10 km+ - 250° 250° 6 kt METAR EGPE 261550Z 25006KT 9999 FEW032 06/M02 Q1019
15:20
V
7 °C 10 km+ - 260° 260° 9 kt METAR EGPE 261520Z 26009KT 9999 FEW032 07/M02 Q1019
14:50
V
7 °C 10 km+ - 250° 250° 7 kt METAR EGPE 261450Z 25007KT 9999 FEW035 07/M02 Q1019
14:20
V
7 °C 10 km+ - 240° 240° 8 kt METAR EGPE 261420Z 24008KT 9999 FEW039 07/M02 Q1019
13:50
V
7 °C 10 km+ - 230° 230° 8 kt METAR EGPE 261350Z 23008KT 200V260 9999 FEW043 07/M01 Q1020
13:20
V
7 °C 10 km+ - 230° 230° 6 kt METAR EGPE 261320Z 23006KT 9999 FEW038 07/M01 Q1020
12:50
V
7 °C 10 km+ - 220° 220° 5 kt METAR EGPE 261250Z 22005KT 190V280 9999 FEW035 07/M01 Q1020
12:20
V
6 °C 10 km+ - 240° 240° 4 kt METAR EGPE 261220Z 24004KT 190V270 9999 FEW020 06/M01 Q1020
11:50
V
6 °C 10 km+ - 230° 230° 3 kt METAR EGPE 261150Z 23003KT 180V280 9999 FEW025 06/M01 Q1020
11:20
V
6 °C 10 km+ - Var Var 1 kt METAR EGPE 261120Z VRB01KT 9999 FEW035 06/00 Q1020
10:50
V
5 °C 10 km+ - Var Var 1 kt METAR EGPE 261050Z VRB01KT 9999 FEW035 05/00 Q1020
10:20
V
5 °C 10 km+ - 240° 240° 3 kt METAR EGPE 261020Z 24003KT 200V270 9999 FEW037 05/01 Q1020
09:50
V
5 °C 10 km+ - 200° 200° 4 kt METAR EGPE 260950Z 20004KT 9999 FEW029 SCT044 05/02 Q1020
09:20
V
3 °C 10 km+ - 210° 210° 4 kt METAR EGPE 260920Z 21004KT 9999 FEW025 SCT039 03/02 Q1020
08:50
V
4 °C 10 km+ - 260° 260° 4 kt METAR EGPE 260850Z 26004KT 9999 FEW025 SCT039 04/01 Q1019
08:20
V
4 °C 10 km+ 4,800 ft 300° 300° 6 kt METAR EGPE 260820Z 30006KT 9999 VCSH FEW014 SCT030 BKN048 04/01 Q1019
07:50
V
4 °C 10 km+ 4,800 ft 310° 310° 6 kt METAR EGPE 260750Z 31006KT 9999 VCSH FEW014 SCT030 BKN048 04/01 Q1019
07:20
V
3 °C 10 km+ 4,800 ft 290° 290° 5 kt METAR EGPE 260720Z 29005KT 260V320 9999 VCSH FEW011 SCT030 BKN048 03/01 Q1018
06:50
V
3 °C 10 km+ 4,200 ft 310° 310° 7 kt METAR EGPE 260650Z 31007KT 9999 VCSH FEW011 SCT028 BKN042 03/01 Q1018
06:20
V
3 °C 10 km+ - 320° 320° 6 kt METAR EGPE 260620Z 32006KT 9999 SCT025 03/01 Q1017
05:50
V
3 °C 10 km+ 3,300 ft 290° 290° 5 kt METAR EGPE 260550Z AUTO 29005KT 280V340 9999 FEW029/// BKN033/// 03/01 Q1017
05:20
M
3 °C 10 km+ 2,300 ft 280° 280° 4 kt METAR EGPE 260520Z AUTO 28004KT 9999 BKN023/// OVC034/// 03/01 Q1017
04:50
V
3 °C 10 km+ 3,200 ft 270° 270° 2 kt METAR EGPE 260450Z AUTO 27002KT 9999 SCT025/// BKN032/// OVC044/// 03/01 Q1016
04:20
M
3 °C 10 km+ 2,100 ft Var Var 2 kt METAR EGPE 260420Z AUTO VRB02KT 9999 BKN021/// BKN029/// OVC038/// 03/01 Q1016
03:50
M
4 °C 10 km+ 2,100 ft 320° 320° 6 kt METAR EGPE 260350Z AUTO 32006KT 9999 BKN021/// OVC027/// 04/01 Q1015
03:20
M
3 °C 10 km+ 2,100 ft 260° 260° 3 kt METAR EGPE 260320Z AUTO 26003KT 230V300 9999 BKN021/// BKN027/// OVC034/// 03/01 Q1015
02:50
M
3 °C 10 km+ 2,300 ft 250° 250° 3 kt METAR EGPE 260250Z AUTO 25003KT 9999 BKN023/// OVC029/// 03/01 Q1015
02:20
M
2 °C 10 km+ 3,000 ft 220° 220° 3 kt METAR EGPE 260220Z AUTO 22003KT 9999 SCT023/// BKN030/// BKN037/// 02/01 Q1014
01:50
M
2 °C 10 km+ 2,300 ft Var Var 2 kt METAR EGPE 260150Z AUTO VRB02KT 9999 OVC023/// 02/01 Q1014
01:20
M
3 °C 10 km+ 2,300 ft 210° 210° 4 kt METAR EGPE 260120Z AUTO 21004KT 9999 BKN023/// OVC028/// 03/01 Q1013
00:50
M
2 °C 10 km+ 2,300 ft 210° 210° 4 kt METAR EGPE 260050Z AUTO 21004KT 180V240 9999 BKN023/// OVC035/// 02/01 Q1013
00:20
M
2 °C 10 km+ 2,700 ft 230° 230° 6 kt METAR EGPE 260020Z AUTO 23006KT 9999 SCT023/// BKN027/// OVC035/// 02/01 Q1012

February 25, 2024

Time Code Weather Temp. Visibility Ceiling Wind METAR/SPECI
23:50
M
2 °C 10 km+ 2,700 ft 230° 230° 6 kt METAR EGPE 252350Z AUTO 23006KT 9999 BKN027/// 02/01 Q1012
23:20
M
1 °C 10 km+ 2,500 ft 230° 230° 6 kt METAR EGPE 252320Z AUTO 23006KT 9999 BKN025/// BKN030/// 01/01 Q1011
22:50
M
2 °C 10 km+ 2,400 ft 230° 230° 7 kt METAR EGPE 252250Z AUTO 23007KT 9999 BKN024/// OVC045/// 02/01 Q1011
22:20
M
2 °C 10 km+ 2,900 ft 220° 220° 5 kt METAR EGPE 252220Z AUTO 22005KT 9999 SCT023/// BKN029/// 02/01 Q1011
21:50
V
0 °C 10 km+ - 210° 210° 3 kt METAR EGPE 252150Z 21003KT 9999 FEW027 00/00 Q1010
21:20
V
0 °C 10 km+ - 220° 220° 5 kt METAR EGPE 252120Z 22005KT 9999 FEW028 M00/M01 Q1009
20:50
V
0 °C 10 km+ - 220° 220° 4 kt METAR EGPE 252050Z 22004KT 9999 FEW028 00/M00 Q1009
20:20
V
0 °C 10 km+ - 230° 230° 4 kt METAR EGPE 252020Z 23004KT 9999 FEW025 00/M00 Q1009
19:50
V
1 °C 10 km+ - 200° 200° 2 kt METAR EGPE 251950Z 20002KT 9999 FEW025 01/01 Q1008
19:20
V
2 °C 10 km+ - 220° 220° 1 kt METAR EGPE 251920Z 22001KT 9999 FEW025 02/02 Q1008
18:50
V
4 °C 10 km+ 4,300 ft 180° 180° 1 kt METAR EGPE 251850Z 18001KT 9999 FEW015 SCT028 BKN043 04/03 Q1007
18:20
M
4 °C 10 km+ 2,500 ft 360° 360° 0 kt METAR EGPE 251820Z 00000KT 9999 VCSH FEW015 BKN025 04/03 Q1007
17:50
V
4 °C 10 km+ 3,200 ft Var Var 1 kt METAR EGPE 251750Z VRB01KT 9999 VCSH FEW016 BKN032 04/03 Q1006
17:20
M
5 °C 10 km+ 3,000 ft 020° 020° 6 kt METAR EGPE 251720Z 02006KT 9999 -SHRA FEW017 BKN030 05/03 Q1005
16:50
V
6 °C 10 km+ 3,700 ft 350° 350° 11 kt METAR EGPE 251650Z 35011KT 9999 VCSH FEW030 BKN037 06/02 Q1005
16:20
V
7 °C 10 km+ - 360° 360° 0 kt METAR EGPE 251620Z 00000KT 9999 VCSH FEW030 SCT036 07/01 Q1004
15:50
V
8 °C 10 km+ - 360° 360° 0 kt METAR EGPE 251550Z 00000KT 9999 FEW035 08/00 Q1003
15:20
V
6 °C 10 km+ - Var Var 1 kt METAR EGPE 251520Z VRB01KT 9999 FEW034 06/00 Q1003
14:50
V
6 °C 10 km+ - 360° 360° 0 kt METAR EGPE 251450Z 00000KT 9999 FEW034 06/00 Q1002
14:20
V
6 °C 10 km+ - 310° 310° 1 kt METAR EGPE 251420Z 31001KT 9999 FEW032 06/00 Q1002
13:50
V
6 °C 10 km+ - 320° 320° 1 kt METAR EGPE 251350Z 32001KT 9999 FEW035 06/00 Q1002
13:20
V
6 °C 10 km+ - Var Var 1 kt METAR EGPE 251320Z VRB01KT 9999 FEW035 06/00 Q1001
12:50
V
5 °C 10 km+ - Var Var 1 kt METAR EGPE 251250Z VRB01KT 9999 FEW030 05/M00 Q1001
12:20
V
5 °C 10 km+ - 240° 240° 2 kt METAR EGPE 251220Z 24002KT 9999 FEW030 05/00 Q1001
11:50
V
4 °C 10 km+ - 230° 230° 2 kt METAR EGPE 251150Z 23002KT CAVOK 04/00 Q1001
11:20
V
3 °C 10 km+ - 220° 220° 2 kt METAR EGPE 251120Z 22002KT CAVOK 03/01 Q1000
10:50
V
2 °C 10 km+ - 230° 230° 2 kt METAR EGPE 251050Z 23002KT CAVOK 02/00 Q1000
10:20
V
2 °C 10 km+ - 230° 230° 3 kt METAR EGPE 251020Z 23003KT 9999 FEW003 02/M00 Q1000
09:50
V
1 °C 10 km+ - 230° 230° 3 kt METAR EGPE 250950Z 23003KT 9999 FEW003 01/M01 Q1000
09:20
V
-1 °C 10 km+ - 360° 360° 0 kt METAR EGPE 250920Z 00000KT 9999 3000NE VCFG FEW004 M01/M01 Q0999
08:50
V
-2 °C 10 km+ - 360° 360° 0 kt METAR EGPE 250850Z 00000KT 9999 0900NW PRFG FEW007 M02/M03 Q0999
08:20
V
-3 °C 10 km+ - 360° 360° 0 kt METAR EGPE 250820Z 00000KT 9999 8000W VCFG FEW007 M03/M03 Q0999
07:50
V
-3 °C 10 km+ - 360° 360° 0 kt METAR EGPE 250750Z 00000KT 9999 3000N VCFG FEW003 M03/M04 Q0998
07:20
V
-4 °C 10 km+ - 360° 360° 0 kt METAR EGPE 250720Z 00000KT 9999 1500NW VCFG FEW004 M04/M05 Q0998
06:50
V
-5 °C 10 km+ - 360° 360° 0 kt METAR EGPE 250650Z 00000KT 9999 FEW002 M05/M05 Q0998
06:20
V
-4 °C 10 km+ - 360° 360° 0 kt METAR EGPE 250620Z 00000KT 9999 FEW002 M04/M05 Q0997
05:50
V
-3 °C 10 km+ - 360° 360° 0 kt METAR EGPE 250550Z AUTO 00000KT 9999 SCT001/// M03/M04 Q0997